Koniz, Switzerland
Current Conditions -  °F | °C
As of 6:20 AM on Tuesday 23 Dec 2014 (Local Time) from LSZB Reporting Station
Clear Clear  
Wind Chill: 25°   Ceiling: Unl
Heat Index: 25°   Visibility: 6mi
Dew Point: 25°   Wind: 1mph
Humidity: 100%   Direction: NA
Pressure: 30.36"   Gusts: NA
Location:  46.93°N, 7.42°E
Report Text: LSZB 230520Z VRB01KT CAVOK M04/M04 Q1028 NOSIG
Loading
Personal Weather Stations






























Interactive Weather Map New forecast layout! Learn more

10-Day Weather Forecast

Advertisements
Track Severe Weather on mobile